Date,TemperatureHighF,TemperatureAvgF,TemperatureLowF,DewpointHighF,DewpointAvgF,DewpointLowF,HumidityHigh,HumidityAvg,HumidityLow,PressureMaxIn,PressureMinIn,WindSpeedMaxMPH,WindSpeedAvgMPH,GustSpeedMaxMPH,PrecipitationSumIn
2014-1-1,79.6,76.1,74.0,73.4,70.2,64.1,92,82,71,30.21,30.06,9,5,13,0.30
2014-1-2,85.2,78.0,73.6,71.9,69.0,65.2,87,75,52,30.05,29.88,10,5,14,0.00
2014-1-3,74.0,65.7,59.5,70.1,55.8,46.1,90,71,59,30.19,29.89,14,8,20,0.00
2014-1-4,75.5,71.4,67.2,69.2,63.5,54.6,87,77,63,30.19,30.07,9,5,13,0.05
2014-1-5,81.6,76.5,70.3,73.1,69.7,66.0,88,80,73,30.08,29.97,11,5,18,0.00
2014-1-6,83.2,72.7,57.9,71.6,64.1,28.4,95,76,32,30.20,29.97,13,4,20,0.01
2014-1-7,57.3,53.0,47.9,50.0,42.1,27.8,85,68,37,30.32,30.20,11,8,18,0.00
2014-1-8,71.0,64.4,51.0,65.2,60.1,47.6,95,86,77,30.32,30.22,14,9,19,0.13
2014-1-9,76.4,74.9,72.7,72.8,71.0,68.3,93,88,85,30.25,30.13,11,8,16,0.13
2014-1-10,80.2,77.8,76.5,73.2,72.0,71.1,89,82,76,30.16,30.08,8,5,13,0.00
2014-1-11,81.6,77.6,73.0,73.7,71.7,69.6,90,82,74,30.13,29.99,11,6,18,0.00
2014-1-12,72.9,71.4,68.6,70.0,68.6,64.6,93,91,87,30.11,30.03,7,3,8,0.00
2014-1-13,79.5,75.4,70.9,71.2,67.7,62.3,84,77,69,30.17,30.04,6,4,0,0.00
2014-1-14,83.7,75.5,69.5,72.0,68.2,64.5,94,79,54,30.05,29.94,9,3,12,0.00
2014-1-15,69.7,64.3,57.2,65.3,57.9,50.5,93,80,63,30.03,29.94,10,4,12,0.13
2014-1-16,58.2,55.1,46.1,53.7,42.9,27.9,87,66,33,30.16,29.96,14,5,23,0.00
2014-1-17,65.1,52.0,42.5,44.2,37.8,32.7,77,60,39,30.23,30.11,6,3,8,0.00
2014-1-18,65.8,56.4,48.6,49.5,39.8,30.7,83,55,29,30.25,30.15,9,3,0,0.00
2014-1-19,68.3,52.6,41.5,46.8,35.2,29.0,74,54,28,30.30,30.16,7,2,10,0.00
2014-1-20,75.5,63.4,54.1,59.0,53.5,47.1,88,72,50,30.21,30.05,8,2,13,0.00
2014-1-21,73.5,65.4,62.2,61.9,58.0,55.4,89,77,57,30.07,29.89,8,4,17,0.00
2014-1-22,62.7,56.7,48.3,59.7,42.8,29.2,91,62,33,30.18,29.90,11,6,18,0.00
2014-1-23,69.4,55.5,43.2,56.1,44.5,33.1,80,67,47,30.30,30.17,8,4,14,0.00
2014-1-24,69.0,61.3,56.4,55.3,52.4,50.4,85,73,55,30.38,30.23,12,6,17,0.00
2014-1-25,75.8,63.0,51.8,61.9,55.1,48.7,90,77,52,30.23,30.06,6,2,9,0.00
2014-1-26,78.9,66.1,55.9,63.2,58.0,50.0,93,77,37,30.10,29.99,7,2,12,0.00
2014-1-27,83.4,70.3,60.0,68.9,63.3,57.4,93,79,46,30.05,29.94,7,2,12,0.00
2014-1-28,79.6,72.1,61.8,70.0,66.3,60.0,95,83,67,30.09,29.98,9,3,13,0.00
2014-1-29,75.7,68.9,64.5,71.2,66.4,62.0,95,92,82,30.09,29.99,9,3,14,0.27
2014-1-30,69.2,65.9,62.4,68.0,64.1,60.9,96,94,88,30.11,30.03,8,4,11,0.79
2014-1-31,81.4,74.3,68.9,74.9,71.4,67.7,97,91,77,30.10,30.01,8,4,13,1.03
2014-2-1,81.4,76.8,74.6,73.1,71.6,70.5,92,84,74,30.15,30.06,9,4,12,0.00
2014-2-2,80.0,76.6,74.5,71.6,70.2,68.8,86,81,73,30.16,30.07,9,5,14,0.00
2014-2-3,81.6,77.3,74.2,73.6,71.7,70.2,92,83,75,30.13,30.03,9,5,13,0.13
2014-2-4,80.1,77.4,75.3,72.3,71.1,69.5,90,81,74,30.15,30.06,10,6,15,0.00
2014-2-5,82.2,76.5,70.7,73.7,71.4,68.6,94,85,72,30.11,30.01,11,5,21,0.14
2014-2-6,81.1,75.1,71.0,73.4,70.7,69.5,96,87,72,30.12,30.03,9,2,11,0.01
2014-2-7,78.8,72.8,69.6,71.1,69.1,67.5,94,89,75,30.15,30.06,6,2,9,0.00
2014-2-8,83.0,72.8,68.0,73.4,68.9,65.1,96,88,70,30.10,30.00,9,3,13,0.00
2014-2-9,76.2,68.3,64.9,67.8,64.1,60.8,96,87,74,30.09,30.00,10,4,11,0.00
2014-2-10,78.3,70.0,63.7,68.0,63.9,61.2,92,81,66,30.10,30.01,7,4,11,0.00
2014-2-11,81.4,75.5,70.9,70.3,67.4,64.3,83,76,63,30.08,29.99,9,4,14,0.00
2014-2-12,80.6,71.7,63.1,71.0,65.5,60.9,94,82,65,30.03,29.84,11,4,20,0.67
2014-2-13,72.5,66.0,56.7,66.7,59.2,49.4,94,80,56,29.99,29.76,13,6,21,0.08
2014-2-14,68.4,57.4,45.9,51.1,45.9,38.0,88,68,34,30.10,29.97,6,3,8,0.00
2014-2-15,78.8,65.1,53.2,61.3,54.3,44.2,92,70,47,30.14,29.99,11,4,16,0.00
2014-2-16,74.6,61.8,50.3,57.7,49.8,42.7,84,66,41,30.20,30.11,6,3,10,0.00
2014-2-17,75.2,66.2,57.8,61.0,56.1,52.2,86,71,57,30.23,30.15,7,3,11,0.00
2014-2-18,77.2,72.2,66.8,63.7,60.8,57.4,79,68,53,30.25,30.17,7,3,9,0.00
2014-2-19,76.2,73.0,72.0,64.3,62.6,61.5,74,70,62,30.18,30.11,7,5,11,0.00
2014-2-20,80.0,75.9,73.8,71.0,67.0,64.2,83,74,67,30.18,30.09,11,7,16,0.00
2014-2-21,82.0,77.3,75.5,72.6,71.2,70.2,87,82,72,30.12,30.04,11,6,19,0.00
2014-2-22,83.0,75.9,70.5,72.7,70.5,68.1,95,84,65,30.13,30.01,9,3,12,0.00
2014-2-23,82.1,75.6,69.4,73.1,70.7,67.6,95,85,71,30.10,30.00,9,3,14,0.00
2014-2-24,85.6,76.1,69.0,71.9,69.6,67.2,94,81,56,30.05,29.97,7,2,11,0.00
2014-2-25,83.6,75.9,69.3,71.5,68.2,61.6,95,79,52,30.04,29.93,7,3,13,0.00
2014-2-26,85.6,74.8,64.9,69.2,65.2,60.4,96,75,44,29.97,29.77,10,4,15,0.00
2014-2-27,76.6,71.9,64.9,69.5,65.6,61.0,91,81,60,29.95,29.78,7,4,13,0.15
2014-2-28,72.6,64.9,60.8,62.5,59.2,52.8,95,83,61,30.09,29.90,8,3,12,0.13
2014-3-1,61.3,59.4,58.2,56.5,55.9,55.0,91,88,83,30.11,30.06,3,2,4,0.00
2014-3-2,78.2,73.3,70.1,63.5,60.6,58.9,71,65,53,30.20,30.09,9,4,16,0.00
2014-3-3,80.7,73.7,63.5,65.4,62.0,58.3,91,67,52,30.10,30.00,9,4,15,0.00
2014-3-4,78.1,71.6,63.7,67.4,64.0,60.6,92,78,62,30.09,29.99,7,3,11,0.00
2014-3-5,81.5,75.4,71.5,70.9,67.2,64.6,87,76,66,30.06,29.94,9,3,12,0.00
2014-3-6,84.0,72.3,65.1,73.2,67.9,62.8,95,87,59,30.00,29.80,14,4,18,0.26
2014-3-7,78.9,70.5,59.5,67.3,60.0,51.9,96,71,44,30.04,29.80,14,7,18,0.04
2014-3-8,71.0,63.5,54.7,60.8,54.9,48.6,90,74,53,30.16,30.03,8,4,8,0.00
2014-3-9,76.1,68.2,61.1,64.9,61.3,58.9,94,80,61,30.18,30.09,8,3,10,0.00
2014-3-10,80.4,70.8,64.5,64.4,61.7,60.1,88,74,50,30.13,29.98,8,3,13,0.00
2014-3-11,78.7,71.3,60.3,67.9,63.3,56.7,90,77,59,30.04,29.88,10,4,15,0.00
2014-3-12,85.3,77.8,70.0,70.6,66.7,63.2,90,70,48,29.90,29.76,10,5,17,0.00
2014-3-13,75.0,68.1,60.8,69.0,58.1,43.7,85,71,51,30.17,29.86,14,7,16,0.00
2014-3-14,72.3,65.7,58.6,57.2,51.5,45.5,73,61,50,30.27,30.16,10,5,16,0.00
2014-3-15,78.4,72.3,62.7,61.0,57.7,54.1,81,61,46,30.17,30.06,8,4,12,0.00
2014-3-16,80.8,75.0,72.2,67.4,63.6,59.1,77,68,61,30.07,29.85,13,6,21,0.00
2014-3-17,82.4,77.4,74.3,73.2,70.4,67.7,87,79,69,29.86,29.75,13,8,24,0.00
2014-3-18,78.9,74.4,67.0,72.4,65.5,56.5,94,75,52,30.02,29.71,13,6,16,0.31
2014-3-19,78.6,70.8,62.5,66.0,62.3,59.9,92,75,61,30.09,29.99,9,3,13,0.00
2014-3-20,78.9,74.7,70.5,70.3,66.5,63.6,85,76,68,30.06,29.97,10,3,15,0.04
2014-3-21,80.7,71.1,62.4,70.5,65.2,60.4,94,82,70,30.07,29.98,11,4,14,0.00
2014-3-22,76.5,75.3,73.2,72.0,67.6,66.5,90,77,74,30.08,30.01,8,6,10,0.35
2014-3-23,87.1,75.2,68.1,73.0,66.4,63.4,90,75,48,30.07,29.95,7,2,11,0.00
2014-3-24,75.4,71.2,65.8,69.3,66.8,63.7,94,86,71,30.06,29.92,7,3,10,0.34
2014-3-25,79.6,68.9,63.8,70.2,64.6,49.8,95,87,58,30.02,29.84,11,4,15,0.57
2014-3-26,66.7,61.0,54.7,54.9,48.9,39.0,79,65,50,30.26,30.03,12,7,18,0.00
2014-3-27,74.4,69.3,65.3,63.2,56.8,50.8,79,65,57,30.31,30.19,13,8,20,0.00
2014-3-28,78.6,75.3,72.6,70.4,64.7,60.5,83,70,63,30.21,30.07,10,8,18,0.00
2014-3-29,80.9,76.0,68.5,74.4,71.1,65.1,89,85,76,30.09,29.93,11,6,18,0.35
2014-3-30,76.7,70.6,64.6,66.7,56.8,44.4,91,65,34,30.07,29.92,9,4,15,0.00
2014-3-31,75.6,66.7,58.2,64.0,56.0,49.3,84,69,58,30.15,30.06,9,3,14,0.00
2014-4-1,76.5,70.3,61.8,62.0,59.8,57.9,89,70,57,30.19,30.11,8,3,11,0.00
2014-4-2,77.7,73.1,69.4,62.1,59.8,57.7,70,63,55,30.20,30.13,8,4,16,0.00
2014-4-3,79.3,74.6,71.8,65.5,62.6,60.0,71,66,62,30.17,30.08,9,6,14,0.00
2014-4-4,80.9,76.4,74.0,66.3,64.8,63.1,75,68,56,30.10,30.02,9,5,14,0.00
2014-4-5,81.9,76.3,68.5,68.5,66.3,64.6,89,72,57,30.07,29.99,7,3,8,0.00
2014-4-6,81.7,76.4,68.7,68.8,67.0,65.3,90,73,61,30.05,29.95,10,4,15,0.00
2014-4-7,83.0,78.8,75.5,74.8,71.8,67.8,90,79,71,30.00,29.89,13,8,20,0.00
2014-4-8,88.1,77.5,67.3,76.9,71.2,62.4,92,82,59,29.94,29.76,13,7,22,0.21
2014-4-9,76.0,70.4,64.9,63.5,56.1,48.5,85,62,41,30.16,29.89,12,6,18,0.00
2014-4-10,76.7,72.7,68.8,59.3,54.0,48.2,64,52,43,30.27,30.15,10,6,18,0.00
2014-4-11,80.3,73.4,69.6,67.5,63.2,59.7,81,70,59,30.24,30.13,11,4,18,0.01
2014-4-12,79.5,75.5,72.5,67.1,65.0,62.0,77,70,57,30.19,30.08,10,6,16,0.00
2014-4-13,76.8,74.8,72.3,72.1,69.2,66.1,90,83,75,30.11,30.00,9,8,0,0.42
2014-4-14,82.6,77.9,75.6,73.6,71.9,70.6,87,82,72,30.02,29.92,9,6,15,0.01
2014-4-15,84.6,77.2,73.8,74.9,72.4,70.0,92,85,70,29.95,29.83,12,4,19,0.62
2014-4-16,78.5,74.5,70.4,72.5,69.8,66.2,94,86,74,30.09,29.93,12,5,19,0.02
2014-4-17,81.3,76.8,73.7,73.0,71.4,69.4,92,83,76,30.16,30.05,10,7,13,0.11
2014-4-18,82.7,77.5,72.6,73.0,71.8,68.8,94,83,70,30.10,29.96,11,6,15,0.22
2014-4-19,87.5,77.4,68.8,74.2,69.7,61.3,92,78,54,29.99,29.87,10,5,15,0.14
2014-4-20,77.0,68.6,64.4,65.0,60.5,56.8,83,75,59,30.05,29.95,8,5,10,0.00
2014-4-21,78.5,71.1,60.9,67.2,63.2,57.9,90,76,60,30.05,29.93,10,6,14,0.00
2014-4-22,81.5,72.4,67.2,69.2,65.4,63.3,88,79,62,29.97,29.85,7,3,8,0.00
2014-4-23,82.4,73.7,65.9,70.5,65.5,62.9,91,76,57,29.97,29.88,7,3,9,0.00
2014-4-24,82.7,75.3,66.8,71.3,67.3,62.9,88,77,62,30.03,29.93,8,4,14,0.00
2014-4-25,85.6,77.9,69.4,73.1,68.7,65.8,89,74,53,30.03,29.92,8,3,10,0.00
2014-4-26,83.2,76.9,69.8,72.8,70.0,66.1,89,80,68,30.02,29.93,10,3,13,0.00
2014-4-27,85.7,81.1,76.6,71.9,69.3,65.7,79,68,53,30.04,29.95,8,5,13,0.00
2014-4-28,85.6,81.6,78.3,74.6,72.7,67.9,83,75,67,30.00,29.91,9,6,13,0.00
2014-4-29,86.3,81.2,78.8,77.1,74.5,72.5,85,80,71,30.03,29.89,11,5,15,0.00
2014-4-30,86.2,81.4,78.9,76.3,75.0,73.1,87,81,69,30.08,29.97,9,5,14,0.00
2014-5-1,85.7,81.1,78.5,75.4,73.8,72.6,86,79,68,30.05,29.96,12,6,18,0.00
2014-5-2,85.6,80.8,77.7,74.2,72.7,70.9,85,77,63,30.00,29.88,13,6,18,0.00
2014-5-3,87.9,76.0,71.2,73.9,70.4,67.7,92,84,56,30.00,29.94,11,2,14,0.26
2014-5-4,80.1,73.7,67.3,71.1,66.1,55.0,93,78,43,30.07,29.96,11,5,16,0.00
2014-5-5,81.6,74.4,67.7,69.3,64.5,60.6,89,72,53,30.06,29.99,11,4,16,0.00
2014-5-6,82.3,76.9,66.5,69.9,66.4,63.5,90,71,58,30.05,29.99,9,4,14,0.00
2014-5-7,83.8,80.5,77.3,71.7,68.8,66.1,74,68,61,30.15,30.02,11,8,15,0.00
2014-5-8,83.8,80.5,77.9,71.6,69.3,64.8,77,69,60,30.20,30.11,11,8,16,0.00
2014-5-9,84.2,80.3,77.8,71.6,69.3,66.7,75,69,63,30.20,30.10,12,9,18,0.00
2014-5-10,83.6,80.0,77.9,72.7,70.8,68.6,78,74,68,30.17,30.07,13,8,20,0.00
2014-5-11,83.8,80.2,78.4,71.9,69.7,65.1,79,70,57,30.16,30.06,10,7,13,0.00
2014-5-12,84.3,81.3,78.3,73.7,71.3,69.2,83,72,63,30.14,30.06,11,9,20,0.00
2014-5-13,83.3,79.7,75.5,76.1,73.2,70.7,91,81,74,30.08,29.99,12,9,17,0.00
2014-5-14,84.6,80.5,75.9,75.4,72.9,69.5,88,78,65,30.07,29.98,11,8,19,0.00
2014-5-15,83.5,76.9,73.2,77.1,73.7,70.7,95,90,78,30.03,29.93,10,5,16,0.00
2014-5-16,80.9,74.8,73.0,72.9,71.0,65.7,94,88,60,30.03,29.95,8,4,14,0.00
2014-5-17,81.0,73.1,66.7,62.0,59.4,57.8,73,63,51,30.09,30.06,12,7,21,0.00
2014-5-18,80.7,77.3,74.9,65.6,62.4,60.5,63,60,55,30.12,30.06,11,8,17,0.00
2014-5-19,81.8,78.2,75.6,66.9,64.5,61.2,69,63,57,30.15,30.08,11,8,0,0.00
2014-5-20,82.0,78.4,75.6,67.2,65.0,62.6,71,64,57,30.19,30.12,9,7,6,0.00
2014-5-21,79.9,76.2,74.8,64.6,63.1,61.2,68,64,57,30.16,30.11,8,5,13,0.00
2014-5-22,81.8,74.6,69.1,67.5,65.0,63.9,86,72,58,30.15,30.08,7,1,9,0.00
2014-5-23,88.9,79.6,69.5,71.8,68.7,63.0,92,71,46,30.11,30.03,7,3,11,0.00
2014-5-24,86.0,79.1,72.5,73.1,70.1,68.1,89,74,60,30.09,30.02,9,3,12,0.00
2014-5-25,84.3,79.6,72.5,74.6,71.8,70.2,93,78,63,30.13,30.03,13,3,13,0.00
2014-5-26,85.5,80.9,78.1,74.2,71.8,69.5,81,74,62,30.18,30.08,8,4,13,0.00
2014-5-27,84.9,80.9,78.9,73.0,71.6,69.6,81,74,62,30.15,30.06,8,5,13,0.00
2014-5-28,85.2,80.9,77.8,75.1,72.6,68.3,83,76,64,30.09,30.00,9,4,12,0.00
2014-5-29,83.3,79.5,75.5,74.9,72.1,66.4,85,78,67,30.06,29.97,8,3,8,0.00
2014-5-30,85.1,79.2,72.0,75.1,73.3,70.0,97,83,69,30.04,29.97,9,4,12,0.28
2014-5-31,86.5,81.6,78.2,74.6,73.4,72.2,83,77,66,30.05,29.97,8,4,11,0.00
2014-6-1,85.3,81.1,78.4,76.4,73.8,71.6,86,79,68,30.06,29.98,11,6,17,0.05
2014-6-2,81.7,78.6,74.8,74.5,72.0,68.7,93,80,72,30.10,30.00,12,8,22,0.46
2014-6-3,82.6,78.6,77.0,69.0,66.7,63.1,74,67,59,30.08,29.99,8,5,12,0.00
2014-6-4,82.5,79.4,76.9,70.5,69.0,67.8,76,71,64,30.00,29.93,8,5,12,0.00
2014-6-5,83.9,80.4,76.2,69.8,68.1,66.9,75,67,59,29.99,29.91,8,4,13,0.00
2014-6-6,88.0,80.5,70.6,75.0,70.4,67.6,92,72,53,30.00,29.92,9,3,16,0.00
2014-6-7,91.4,82.6,75.3,75.8,73.3,68.3,94,75,50,30.02,29.94,7,2,10,0.00
2014-6-8,87.8,80.1,74.3,75.8,71.7,65.6,87,76,50,30.02,29.93,12,2,19,0.00
2014-6-9,87.9,79.3,73.1,76.5,72.2,67.6,93,80,62,30.02,29.91,7,2,12,0.00
2014-6-10,88.1,78.4,73.5,77.5,71.9,68.7,90,81,61,30.04,29.98,8,2,12,0.07
2014-6-11,88.0,78.1,71.5,77.6,73.0,69.2,95,85,63,30.04,29.96,10,2,10,1.05
2014-6-12,88.0,76.3,70.7,74.2,71.1,68.1,97,85,53,30.07,29.96,12,3,15,0.62
2014-6-13,87.0,77.5,72.0,76.5,72.9,69.2,96,86,65,30.08,29.99,10,2,13,0.31
2014-6-14,87.8,79.6,71.3,78.5,74.5,70.7,98,85,68,30.11,30.01,8,3,14,0.01
2014-6-15,87.8,82.3,78.1,79.0,75.8,73.5,88,81,64,30.14,30.03,8,5,11,0.06
2014-6-16,84.8,81.3,77.4,76.3,73.1,68.8,91,77,64,30.17,30.07,9,4,14,0.00
2014-6-17,82.0,78.0,72.0,74.4,72.0,69.2,92,82,73,30.17,30.07,12,4,18,0.68
2014-6-18,83.3,76.7,71.6,76.3,72.4,69.6,95,87,75,30.13,30.06,9,2,10,0.50
2014-6-19,86.0,77.6,72.4,76.3,72.6,70.0,95,85,67,30.13,30.05,7,2,10,0.14
2014-6-20,87.8,77.9,71.0,74.9,71.6,69.8,98,82,62,30.10,30.03,7,2,11,0.00
2014-6-21,90.0,78.0,73.5,76.4,73.1,69.4,96,86,54,30.05,29.95,7,2,10,0.16
2014-6-22,91.1,79.3,73.6,76.9,73.8,69.3,97,84,51,30.03,29.92,14,3,14,0.63
2014-6-23,89.9,81.7,74.0,77.0,74.4,69.8,95,79,55,30.11,29.96,8,3,11,0.00
2014-6-24,90.5,83.0,75.9,77.4,74.7,72.1,91,77,56,30.16,30.08,9,3,11,0.00
2014-6-25,88.2,82.5,75.6,78.4,76.1,73.4,93,82,69,30.14,30.05,9,2,13,0.02
2014-6-26,88.1,81.8,74.0,77.7,75.3,72.1,95,81,66,30.12,29.99,8,3,12,0.00
2014-6-27,88.5,82.8,76.6,77.5,75.3,71.8,96,79,66,30.14,30.02,7,2,10,0.00
2014-6-28,88.9,82.3,74.8,76.9,74.3,72.2,93,78,60,30.16,30.06,8,2,10,0.00
2014-6-29,92.5,82.4,76.7,75.7,73.4,69.3,92,75,51,30.13,30.04,9,2,9,0.00
2014-6-30,90.5,80.9,74.4,76.1,74.0,72.1,94,80,60,30.06,29.91,12,4,14,0.02
2014-7-1,87.2,80.9,77.5,75.8,74.7,71.6,93,82,60,29.94,29.83,8,4,9,0.00
2014-7-9,88.3,77.5,73.5,79.4,74.7,71.5,98,92,63,30.14,30.08,7,1,0,1.35
2014-7-10,88.2,80.0,74.6,77.3,75.0,70.9,97,85,65,30.14,30.07,6,2,0,0.41
2014-7-11,87.6,83.8,75.8,78.7,76.5,74.0,96,79,68,30.16,30.07,7,5,0,0.00
2014-7-12,88.0,83.9,78.1,77.9,76.0,73.7,88,78,69,30.14,30.07,7,4,0,0.01
2014-7-13,87.9,84.1,80.9,78.9,76.2,73.7,85,77,70,30.11,30.05,8,5,0,0.04
2014-7-14,88.9,84.6,79.7,77.9,75.7,70.0,88,75,62,30.10,30.03,7,3,0,0.00
2014-7-15,88.4,81.1,77.0,78.0,75.0,73.2,91,82,65,30.06,29.98,8,2,2,0.09
2014-7-16,90.9,80.7,77.1,77.2,75.3,73.0,91,84,57,30.01,29.97,10,1,12,0.26
2014-7-18,92.4,86.4,76.7,78.5,76.3,73.1,94,73,54,30.07,30.01,8,4,11,0.00
2014-7-19,89.3,87.1,84.2,78.7,77.2,75.2,81,73,68,30.09,30.02,7,5,11,0.00
2014-7-20,89.2,86.0,81.5,78.2,76.5,75.1,84,74,66,30.07,30.00,7,4,10,0.00
2014-7-21,88.5,82.8,79.1,78.6,76.3,74.1,87,81,67,30.07,30.00,9,2,11,0.00
2014-7-22,89.7,81.0,74.9,78.7,75.9,72.6,95,85,69,30.09,29.99,9,1,16,1.23
2014-7-23,87.8,82.0,75.6,79.6,77.4,73.8,96,86,72,30.12,30.03,9,2,9,1.71
2014-7-24,87.8,80.2,76.6,78.2,76.3,74.7,95,88,71,30.07,30.04,4,0,5,0.00
2014-7-25,91.0,86.3,77.6,78.7,77.1,75.1,92,75,60,30.10,30.02,7,3,12,0.00
2014-7-26,90.0,87.0,79.1,78.6,76.6,75.0,90,72,63,30.13,30.06,7,4,9,0.01
2014-7-27,92.0,82.5,77.7,78.0,75.6,71.3,92,81,52,30.12,30.06,7,1,9,0.00
2014-7-28,94.3,88.6,80.3,78.7,76.5,68.4,91,68,43,30.09,30.00,9,4,11,0.00
2014-7-29,95.7,84.0,79.3,78.8,76.4,71.6,93,79,46,30.03,29.95,8,2,12,0.04
2014-7-30,89.4,81.6,76.5,78.9,76.0,73.0,93,84,67,30.01,29.94,7,2,10,0.01
2014-7-31,90.8,82.2,77.7,78.5,76.1,74.3,93,83,64,30.02,29.95,9,2,12,0.00
2014-8-1,90.2,85.7,80.2,78.1,76.8,75.5,87,75,64,30.01,29.93,8,4,13,0.00
2014-8-2,89.0,84.0,79.0,79.0,77.1,75.4,93,80,67,29.99,29.90,6,3,12,0.08
2014-8-3,87.3,79.3,71.6,79.2,76.2,69.7,96,90,72,29.98,29.87,9,2,12,1.49
2014-8-4,88.1,77.2,73.8,77.8,74.5,71.8,96,92,69,30.00,29.88,9,2,11,0.51
2014-8-5,87.6,81.9,75.5,77.2,75.3,74.0,95,81,65,30.08,30.01,4,1,5,0.00
2014-8-6,90.2,81.9,76.6,78.3,76.0,74.5,94,83,62,30.08,30.00,6,2,10,0.00
2014-8-7,91.8,83.5,73.8,78.8,76.2,71.0,93,80,57,30.04,29.94,8,2,13,0.27
2014-8-8,89.7,81.0,75.5,78.7,76.2,74.0,97,86,63,30.07,29.98,7,2,13,0.00
2014-8-9,90.8,83.9,78.7,78.8,76.6,73.8,92,80,63,30.09,30.01,7,2,0,0.02
2014-8-10,92.8,82.9,77.5,79.0,76.3,70.0,94,82,61,30.09,30.01,7,2,10,0.15
2014-8-11,91.6,84.0,75.2,78.3,75.4,72.1,95,76,59,30.08,30.00,8,2,12,0.00
2014-8-12,91.3,83.7,78.5,77.7,75.0,73.0,89,76,59,30.05,29.98,8,2,15,0.00
2014-8-13,91.6,83.6,77.4,78.0,75.7,74.1,93,78,59,30.05,29.98,8,2,11,0.00
2014-8-14,91.2,82.7,77.4,78.6,76.7,73.8,95,83,59,30.06,29.99,10,2,10,0.50
2014-8-15,93.4,78.3,71.7,78.0,75.0,70.4,97,90,57,30.10,29.98,11,1,13,2.24
2014-8-16,91.6,78.5,74.4,80.1,74.8,72.9,98,90,64,30.12,30.01,7,1,13,0.03
2014-8-17,90.6,80.9,76.7,80.0,76.4,75.0,96,87,65,30.13,30.06,6,1,10,0.00
2014-8-18,90.8,83.5,76.8,78.8,76.1,72.7,94,80,56,30.09,29.98,8,2,11,0.00
2014-8-19,90.7,84.2,78.5,79.4,77.2,75.7,93,80,64,30.05,29.97,8,2,12,0.00
2014-8-20,90.7,85.8,78.5,78.4,76.9,75.1,90,75,64,30.09,30.00,8,3,8,0.00
2014-8-21,90.3,85.2,80.1,79.8,77.7,74.0,92,79,67,30.13,30.05,7,2,13,0.10
2014-8-22,89.8,85.7,81.9,78.9,77.1,75.1,86,76,66,30.11,29.98,7,2,10,0.00
2014-8-23,90.2,85.3,79.4,78.7,76.1,74.0,92,74,60,30.00,29.87,8,3,11,0.00
2014-8-24,90.9,86.7,77.7,77.3,75.6,72.7,92,71,57,29.86,29.76,8,4,10,0.00
2014-8-25,90.4,85.8,80.4,79.8,77.5,73.8,91,77,67,29.80,29.73,11,8,17,0.08
2014-8-26,88.9,85.8,83.5,75.9,73.7,69.3,74,68,60,29.91,29.77,11,8,19,0.00
2014-8-27,88.5,84.5,77.5,76.6,73.7,70.9,85,70,62,30.00,29.88,8,4,10,0.00
2014-8-28,88.8,83.9,79.5,80.4,76.4,72.7,87,78,70,30.03,29.95,7,3,9,0.16
2014-8-29,90.9,84.9,79.4,79.8,77.6,73.8,90,79,65,30.11,29.99,8,3,12,0.00
2014-8-30,90.0,86.3,84.6,78.9,77.5,70.8,82,75,55,30.12,30.05,9,5,15,0.00
2014-8-31,89.5,87.1,84.3,78.1,76.8,73.9,78,72,66,30.13,30.06,9,7,14,0.00
2014-9-1,89.4,85.8,83.5,78.1,76.3,74.5,81,73,64,30.11,30.03,9,5,13,0.01
2014-9-2,88.4,83.5,78.3,77.9,74.3,71.1,92,74,65,30.09,30.00,8,4,11,0.30
2014-9-3,86.4,81.7,76.6,75.1,73.4,70.7,91,76,62,30.06,29.97,10,3,17,0.13
2014-9-4,87.3,81.2,73.7,79.1,74.8,70.9,96,81,66,30.13,30.03,9,2,17,1.12
2014-9-5,89.1,84.9,79.7,80.4,77.6,74.7,89,79,69,30.12,30.03,9,3,10,0.10
2014-9-6,87.7,83.2,78.1,79.6,77.1,74.4,95,82,73,30.07,29.97,8,3,10,0.39
2014-9-7,89.1,83.7,78.8,77.9,76.3,71.7,92,79,58,30.04,29.97,7,3,9,0.00
2014-9-8,89.1,85.2,76.2,77.1,75.1,72.4,91,72,64,30.08,29.99,8,4,12,0.00
2014-9-9,88.3,83.9,81.0,76.4,74.4,72.1,79,74,61,30.07,29.98,9,4,14,0.00
2014-9-10,87.2,82.6,80.6,76.5,74.4,72.4,84,76,67,30.02,29.95,8,4,14,0.00
2014-9-11,83.2,78.7,74.2,76.7,74.7,73.0,97,88,76,30.02,29.95,4,1,5,1.23
2014-9-12,86.8,81.1,73.1,75.3,73.6,71.8,97,79,64,30.02,29.92,11,5,14,1.22
2014-9-13,86.5,80.5,74.3,77.4,74.2,68.3,96,81,65,30.10,29.98,13,4,17,0.11
2014-9-14,89.3,80.2,73.5,76.9,73.0,70.6,96,80,59,30.15,30.05,8,2,11,0.34
2014-9-15,87.4,83.7,77.0,77.6,76.0,72.5,90,78,68,30.16,30.08,6,3,9,0.00
2014-9-16,88.4,82.1,77.0,77.6,75.7,74.4,95,82,67,30.11,29.98,5,1,10,0.00
2014-9-17,90.9,80.8,74.1,75.5,73.1,70.0,96,79,53,29.98,29.88,12,2,19,0.13
2014-9-18,86.7,79.6,74.0,77.3,74.7,72.6,96,86,67,29.95,29.87,6,2,10,0.16
2014-9-19,87.1,78.3,74.9,78.2,75.4,71.9,98,91,70,29.97,29.89,6,1,8,0.25
2014-9-20,90.4,78.5,74.5,78.3,75.0,72.4,98,90,56,29.98,29.86,8,1,12,1.41
2014-9-21,86.8,78.2,71.9,77.0,74.0,70.1,98,88,68,30.05,29.93,10,2,24,0.95
2014-9-22,86.1,78.8,73.4,78.3,74.7,72.6,98,88,71,30.07,29.95,6,1,10,0.02
2014-9-23,84.4,79.3,75.2,76.6,74.0,72.1,94,84,71,30.05,29.93,11,3,19,0.02
2014-9-24,86.1,81.8,73.3,77.7,76.3,72.7,98,84,74,30.06,29.98,7,3,10,1.32
2014-9-25,87.5,81.2,76.8,79.5,76.8,74.4,96,87,75,30.06,29.97,8,4,14,0.39
2014-9-26,86.3,81.7,76.3,78.6,76.8,73.5,94,85,73,30.01,29.93,9,4,10,0.18
2014-9-27,87.8,84.5,81.4,78.1,76.9,73.9,83,78,72,29.99,29.92,10,5,13,0.01
2014-9-28,87.7,85.4,82.7,78.1,76.6,74.6,83,75,70,30.00,29.91,8,6,11,0.01
2014-9-29,88.2,81.3,76.1,77.3,75.6,73.6,96,84,69,29.92,29.85,6,2,13,0.36
2014-9-30,90.3,82.4,75.2,79.2,75.9,72.3,97,81,63,29.88,29.81,7,2,7,0.06
2014-10-1,91.8,83.7,76.5,79.5,76.3,73.9,97,80,57,30.00,29.87,7,3,10,0.03
2014-10-2,91.5,83.3,76.7,78.5,76.0,72.8,96,80,57,30.04,29.94,6,2,10,0.00
2014-10-3,88.3,82.5,73.8,78.5,76.5,71.1,95,83,71,30.04,29.93,9,2,12,0.59
2014-10-4,90.1,79.9,74.7,78.6,75.4,72.5,98,87,57,29.99,29.82,8,2,12,0.82
2014-10-5,83.2,75.1,66.2,72.7,64.9,58.9,87,71,47,30.00,29.89,9,4,12,0.00
2014-10-6,83.0,77.8,70.4,71.9,69.1,66.7,91,75,63,30.07,29.97,8,3,11,0.00
2014-10-7,84.3,81.1,77.8,75.5,73.4,70.8,86,78,68,30.10,30.01,7,3,9,0.00
2014-10-8,85.7,79.4,74.9,76.6,74.7,73.1,96,86,72,30.11,30.04,6,1,8,0.00
2014-10-9,85.9,83.9,79.6,74.8,73.4,70.8,81,71,64,30.07,29.99,9,6,14,0.00
2014-10-10,86.3,83.5,80.6,74.0,72.2,69.8,77,69,59,30.04,29.95,9,7,13,0.00
2014-10-11,86.1,83.4,80.4,74.8,72.6,70.6,76,70,64,30.02,29.96,7,5,13,0.00
2014-10-12,85.6,81.8,80.0,75.8,73.7,72.2,81,77,70,30.07,29.98,8,5,12,0.00
2014-10-13,85.1,82.9,81.1,75.9,74.1,72.0,78,75,70,30.09,30.01,10,7,13,0.00
2014-10-14,87.9,83.2,79.9,77.6,75.8,72.5,88,79,70,30.04,29.93,8,5,14,0.04
2014-10-15,87.5,80.0,77.0,80.2,76.0,71.8,96,88,72,29.99,29.89,5,1,7,0.53
2014-10-16,83.2,76.1,68.7,75.6,65.7,61.3,96,72,52,29.98,29.87,8,3,13,0.00
2014-10-17,83.5,74.3,65.4,66.4,59.2,52.6,88,62,37,29.99,29.90,4,2,7,0.00
2014-10-18,83.4,72.9,65.2,67.3,64.9,63.3,96,78,52,29.99,29.91,6,1,7,0.00
2014-10-19,84.1,80.5,68.4,69.4,67.4,65.2,93,65,54,30.01,29.95,5,4,6,0.00
2014-10-20,85.0,80.6,77.2,70.0,67.4,63.6,71,64,51,30.04,29.93,8,3,11,0.00
2014-10-21,82.6,77.8,71.8,75.7,71.9,69.0,95,82,71,29.97,29.90,9,2,12,0.35
2014-10-22,81.7,76.2,71.9,73.8,71.8,70.2,97,87,70,29.98,29.90,5,1,6,0.00
2014-10-23,78.7,75.7,72.5,74.2,70.8,67.6,96,85,71,29.95,29.88,8,4,13,0.82
2014-10-24,79.3,78.3,75.9,71.1,70.0,69.0,84,76,72,29.91,29.82,12,8,17,0.01
2014-10-25,81.5,74.2,67.1,69.6,65.7,62.2,88,76,52,29.95,29.85,10,4,12,0.00
2014-10-26,81.0,72.4,66.3,66.4,63.7,55.9,91,76,44,30.03,29.90,8,2,16,0.00
2014-10-27,81.0,72.5,65.6,67.4,63.8,61.2,88,75,59,30.10,29.99,7,2,9,0.00
2014-10-28,84.0,79.3,74.7,71.7,67.1,62.8,88,67,59,30.15,30.07,8,4,10,0.31
2014-10-29,84.0,79.7,75.5,71.2,67.6,64.5,86,67,56,30.10,29.99,7,3,9,0.03
2014-10-30,83.4,76.9,69.2,69.9,67.9,63.1,95,75,54,30.00,29.86,6,2,8,0.00
2014-10-31,84.3,75.8,67.2,70.5,66.9,55.9,95,75,53,29.90,29.76,8,3,10,0.00
2014-11-1,75.4,65.5,55.6,58.4,51.5,38.2,92,63,40,30.15,29.89,13,5,18,0.00
2014-11-2,69.2,57.8,50.4,51.6,42.9,37.6,72,58,36,30.26,30.15,10,5,14,0.00
2014-11-3,75.4,67.8,57.6,59.8,54.1,46.5,75,62,51,30.30,30.21,10,6,17,0.00
2014-11-4,78.4,75.1,72.6,64.4,59.9,53.8,68,59,49,30.27,30.15,10,8,17,0.00
2014-11-5,80.3,77.1,75.1,68.7,65.9,63.4,77,68,64,30.20,30.10,11,8,17,0.00
2014-11-6,81.4,76.6,69.0,67.5,65.5,63.3,85,69,57,30.11,29.98,6,4,19,0.00
2014-11-7,81.4,73.4,67.3,68.1,65.9,64.0,92,78,57,29.99,29.89,6,2,10,0.00
2014-11-8,80.9,74.2,65.9,71.6,68.1,64.4,95,82,63,29.94,29.83,7,2,9,0.00
2014-11-9,71.9,68.6,65.7,69.7,67.1,64.8,97,95,86,29.91,29.83,5,1,8,0.60
2014-11-10,75.8,68.4,64.5,67.5,65.2,63.6,98,90,73,29.95,29.87,7,3,9,0.65
2014-11-11,79.1,67.9,60.8,63.6,60.4,54.5,95,79,47,29.95,29.87,9,3,12,0.01
2014-11-12,82.2,71.7,62.0,68.9,63.5,58.4,91,76,58,30.02,29.93,9,4,11,0.00
2014-11-13,81.0,73.4,66.3,69.0,66.4,64.3,94,80,63,30.04,29.95,6,2,10,0.00
2014-11-14,79.9,70.9,62.9,67.2,63.4,56.2,97,79,45,30.10,29.96,6,2,9,0.00
2014-11-15,79.4,72.3,63.1,69.0,65.0,61.0,94,79,66,30.19,30.08,7,3,9,0.00
2014-11-16,81.8,77.9,74.6,73.3,69.7,65.4,85,76,71,30.19,30.05,8,5,14,0.00
2014-11-17,86.4,79.5,73.7,77.8,74.5,71.1,94,85,64,30.05,29.92,10,4,15,0.55
2014-11-18,75.3,70.8,60.4,71.6,67.1,57.8,94,88,84,30.12,29.96,9,4,14,0.04
2014-11-19,70.8,57.9,53.4,63.1,55.5,52.4,97,92,75,30.25,30.16,7,4,15,0.29
2014-11-20,75.3,67.3,62.2,64.5,61.0,58.9,92,81,66,30.20,30.10,9,4,16,0.01
2014-11-21,74.5,72.6,69.3,68.3,66.4,63.8,94,81,72,30.21,30.11,12,8,20,0.11
2014-11-22,78.5,76.5,74.6,73.7,70.5,67.7,91,82,77,30.20,30.07,15,10,25,0.08
2014-11-23,82.8,79.4,77.6,76.4,74.4,72.7,90,85,78,30.06,29.92,9,6,15,0.00
2014-11-24,83.6,79.4,78.0,78.2,76.4,75.9,94,91,84,30.02,29.93,7,4,13,0.00
2014-11-25,83.3,80.4,78.8,77.1,75.9,74.4,93,87,77,30.05,29.92,10,6,10,0.00
2014-11-26,81.2,70.2,56.3,76.9,65.5,46.5,96,85,59,30.19,29.91,11,5,16,0.94
2014-11-27,72.7,61.6,53.7,52.0,46.0,38.1,82,60,36,30.28,30.15,8,5,7,0.00
2014-11-28,69.1,59.9,51.8,55.1,49.7,45.2,80,70,59,30.25,30.16,10,6,14,0.00
2014-11-29,74.1,62.7,54.0,58.4,54.0,50.6,89,75,56,30.26,30.18,8,4,14,0.00
2014-11-30,76.7,73.3,70.7,65.2,59.2,55.8,73,62,52,30.30,30.21,10,7,17,0.00
2014-12-1,74.8,74.3,74.1,66.6,65.4,64.2,76,74,71,30.25,30.21,9,6,12,0.00
2014-12-10,64.7,58.2,48.8,45.4,42.3,38.7,86,57,39,30.13,30.08,8,1,8,0.00
2014-12-11,66.2,57.5,47.8,53.2,50.3,42.8,95,78,62,30.24,30.12,13,3,13,0.00
2014-12-12,66.0,61.3,52.0,53.8,47.9,38.8,87,63,37,30.26,30.15,8,3,12,0.00
2014-12-13,72.9,65.9,54.5,59.0,54.8,49.4,87,68,50,30.18,30.07,17,4,17,0.00
2014-12-14,73.3,65.9,55.7,57.3,50.8,45.5,76,59,50,30.12,30.03,11,3,11,0.00
2014-12-15,76.5,68.8,55.9,58.9,54.6,46.9,80,61,46,30.15,30.06,11,1,11,0.00
2014-12-16,77.5,68.4,56.6,59.0,56.4,52.3,90,67,50,30.22,30.13,10,1,10,0.00
2014-12-17,74.5,70.1,54.7,60.7,54.7,53.0,95,60,48,30.23,30.15,9,4,10,0.00
2014-12-18,77.3,69.0,58.6,63.3,59.6,54.8,96,73,56,30.19,30.07,11,3,11,0.00
2014-12-19,77.3,71.0,57.8,65.4,61.1,53.4,89,71,62,30.13,30.04,12,2,12,0.00
2014-12-20,77.8,74.0,63.7,65.9,64.1,59.1,91,72,63,30.13,30.04,14,2,14,0.00
2014-12-21,74.8,67.8,63.6,66.4,63.7,61.8,96,87,73,30.11,30.04,7,0,10,0.00
2014-12-22,80.7,74.5,65.8,72.0,69.2,64.0,95,84,72,30.06,29.95,18,4,18,0.00
2014-12-23,81.8,77.2,73.6,73.9,72.2,70.6,92,85,76,30.00,29.92,24,7,24,0.00
2014-12-24,82.1,78.2,75.9,75.7,73.2,71.5,88,85,80,29.99,29.91,23,10,23,0.00
2014-12-25,78.0,70.2,67.2,74.7,64.4,56.0,96,82,59,30.19,29.97,19,6,19,0.08
2014-12-26,74.6,70.1,65.4,72.6,67.2,60.0,98,91,78,30.21,30.13,11,2,11,0.73
2014-12-27,81.5,74.6,68.9,74.2,70.9,68.3,99,89,70,30.25,30.16,11,2,11,0.02
2014-12-28,80.9,74.7,66.1,72.7,69.8,65.0,97,85,74,30.19,30.10,14,2,14,0.00
2014-12-29,81.2,76.1,70.3,74.7,71.3,68.8,97,85,73,30.16,30.07,19,3,19,0.05
2014-12-30,83.0,75.1,69.4,72.1,70.0,67.8,96,85,65,30.22,30.10,10,2,11,0.00
2014-12-31,78.9,73.2,70.1,71.5,70.1,68.1,96,90,72,30.23,30.13,12,3,12,0.01
2015-1-1,75.2,72.9,70.6,72.2,70.8,69.4,97,93,87,30.23,30.13,12,2,12,0.92
2015-1-2,80.4,77.4,74.0,73.7,72.4,70.6,90,85,78,30.26,30.17,18,7,18,0.04